sensor_id;sensor_type;location;lat;lon;timestamp;pressure;altitude;pressure_sealevel;temperature;humidity
11440;BME280;5776;51.814;4.510;2024-02-04T00:00:50;102503.97;;;8.99;100.00
11440;BME280;5776;51.814;4.510;2024-02-04T00:03:16;102496.06;;;8.98;100.00
11440;BME280;5776;51.814;4.510;2024-02-04T00:05:43;102506.09;;;8.97;100.00
11440;BME280;5776;51.814;4.510;2024-02-04T00:08:09;102501.06;;;9.01;100.00
11440;BME280;5776;51.814;4.510;2024-02-04T00:10:34;102505.66;;;9.00;100.00
11440;BME280;5776;51.814;4.510;2024-02-04T00:13:00;102495.03;;;8.99;100.00
11440;BME280;5776;51.814;4.510;2024-02-04T00:15:27;102503.97;;;8.99;100.00
11440;BME280;5776;51.814;4.510;2024-02-04T00:17:53;102507.41;;;8.95;100.00
11440;BME280;5776;51.814;4.510;2024-02-04T00:20:19;102496.56;;;8.95;100.00
11440;BME280;5776;51.814;4.510;2024-02-04T00:22:45;102496.81;;;8.93;100.00
11440;BME280;5776;51.814;4.510;2024-02-04T00:25:13;102498.22;;;8.96;100.00
11440;BME280;5776;51.814;4.510;2024-02-04T00:27:41;102496.81;;;8.93;100.00
11440;BME280;5776;51.814;4.510;2024-02-04T00:30:08;102493.25;;;8.93;100.00
11440;BME280;5776;51.814;4.510;2024-02-04T00:32:33;102490.31;;;8.94;100.00
11440;BME280;5776;51.814;4.510;2024-02-04T00:34:59;102493.84;;;8.95;100.00
11440;BME280;5776;51.814;4.510;2024-02-04T00:37:25;102497.63;;;8.94;100.00
11440;BME280;5776;51.814;4.510;2024-02-04T00:39:51;102501.16;;;8.94;100.00
11440;BME280;5776;51.814;4.510;2024-02-04T00:42:17;102495.97;;;8.93;100.00
11440;BME280;5776;51.814;4.510;2024-02-04T00:44:43;102492.22;;;8.94;100.00
11440;BME280;5776;51.814;4.510;2024-02-04T00:47:09;102491.13;;;8.95;100.00
11440;BME280;5776;51.814;4.510;2024-02-04T00:49:35;102480.31;;;8.95;100.00
11440;BME280;5776;51.814;4.510;2024-02-04T00:52:00;102473.25;;;8.94;100.00
11440;BME280;5776;51.814;4.510;2024-02-04T00:54:26;102471.13;;;8.96;100.00
11440;BME280;5776;51.814;4.510;2024-02-04T00:56:52;102461.94;;;8.97;100.00
11440;BME280;5776;51.814;4.510;2024-02-04T00:59:18;102455.91;;;8.95;100.00
11440;BME280;5776;51.814;4.510;2024-02-04T01:01:44;102455.91;;;8.95;100.00
11440;BME280;5776;51.814;4.510;2024-02-04T01:04:11;102455.69;;;8.96;100.00
11440;BME280;5776;51.814;4.510;2024-02-04T01:06:37;102451.09;;;8.97;100.00
11440;BME280;5776;51.814;4.510;2024-02-04T01:09:03;102452.97;;;8.96;100.00
11440;BME280;5776;51.814;4.510;2024-02-04T01:11:29;102448.38;;;8.97;100.00
11440;BME280;5776;51.814;4.510;2024-02-04T01:13:56;102447.28;;;8.98;100.00
11440;BME280;5776;51.814;4.510;2024-02-04T01:16:22;102452.72;;;8.98;100.00
11440;BME280;5776;51.814;4.510;2024-02-04T01:18:49;102453.78;;;8.97;100.00
11440;BME280;5776;51.814;4.510;2024-02-04T01:21:15;102452.72;;;8.98;100.00
11440;BME280;5776;51.814;4.510;2024-02-04T01:23:41;102459.81;;;8.99;100.00
11440;BME280;5776;51.814;4.510;2024-02-04T01:26:07;102458.13;;;8.98;100.00
11440;BME280;5776;51.814;4.510;2024-02-04T01:28:33;102459.22;;;8.97;100.00
11440;BME280;5776;51.814;4.510;2024-02-04T01:30:58;102459.22;;;8.97;100.00
11440;BME280;5776;51.814;4.510;2024-02-04T01:33:24;102465.72;;;8.96;100.00
11440;BME280;5776;51.814;4.510;2024-02-04T01:35:51;102465.72;;;8.96;100.00
11440;BME280;5776;51.814;4.510;2024-02-04T01:38:20;102467.56;;;8.95;100.00
11440;BME280;5776;51.814;4.510;2024-02-04T01:40:46;102466.53;;;8.96;100.00
11440;BME280;5776;51.814;4.510;2024-02-04T01:43:12;102462.41;;;8.94;100.00
11440;BME280;5776;51.814;4.510;2024-02-04T01:45:38;102473.25;;;8.94;100.00
11440;BME280;5776;51.814;4.510;2024-02-04T01:48:05;102473.25;;;8.94;100.00
11440;BME280;5776;51.814;4.510;2024-02-04T01:50:31;102460.75;;;8.93;100.00
11440;BME280;5776;51.814;4.510;2024-02-04T01:52:57;102461.81;;;8.92;100.00
11440;BME280;5776;51.814;4.510;2024-02-04T01:55:23;102450.75;;;8.93;100.00
11440;BME280;5776;51.814;4.510;2024-02-04T01:57:48;102450.97;;;8.92;100.00
11440;BME280;5776;51.814;4.510;2024-02-04T02:00:16;102450.38;;;8.90;100.00
11440;BME280;5776;51.814;4.510;2024-02-04T02:02:46;102453.09;;;8.90;100.00
11440;BME280;5776;51.814;4.510;2024-02-04T02:05:12;102456.88;;;8.89;100.00
11440;BME280;5776;51.814;4.510;2024-02-04T02:07:38;102466.03;;;8.87;100.00
11440;BME280;5776;51.814;4.510;2024-02-04T02:10:04;102457.09;;;8.87;100.00
11440;BME280;5776;51.814;4.510;2024-02-04T02:12:41;102462.28;;;8.89;100.00
11440;BME280;5776;51.814;4.510;2024-02-04T02:15:15;102470.91;;;8.85;100.00
11440;BME280;5776;51.814;4.510;2024-02-04T02:17:55;102477.97;;;8.86;100.00
11440;BME280;5776;51.814;4.510;2024-02-04T02:23:21;102476.31;;;8.85;100.00
11440;BME280;5776;51.814;4.510;2024-02-04T02:25:49;102469.81;;;8.86;100.00
11440;BME280;5776;51.814;4.510;2024-02-04T02:28:15;102473.03;;;8.83;100.00
11440;BME280;5776;51.814;4.510;2024-02-04T02:30:41;102466.53;;;8.84;100.00
11440;BME280;5776;51.814;4.510;2024-02-04T02:33:07;102460.06;;;8.85;100.00
11440;BME280;5776;51.814;4.510;2024-02-04T02:35:35;102455.47;;;8.86;100.00
11440;BME280;5776;51.814;4.510;2024-02-04T02:40:49;102460.88;;;8.86;100.00
11440;BME280;5776;51.814;4.510;2024-02-04T02:43:17;102462.78;;;8.85;100.00
11440;BME280;5776;51.814;4.510;2024-02-04T02:45:44;102462.28;;;8.89;100.00
11440;BME280;5776;51.814;4.510;2024-02-04T02:48:11;102444.63;;;8.86;100.00
11440;BME280;5776;51.814;4.510;2024-02-04T02:50:37;102450.03;;;8.86;100.00
11440;BME280;5776;51.814;4.510;2024-02-04T02:53:04;102452.97;;;8.84;100.00
11440;BME280;5776;51.814;4.510;2024-02-04T02:55:31;102463.59;;;8.86;100.00
11440;BME280;5776;51.814;4.510;2024-02-04T02:57:56;102463.00;;;8.84;100.00
11440;BME280;5776;51.814;4.510;2024-02-04T03:00:23;102462.78;;;8.85;100.00
11440;BME280;5776;51.814;4.510;2024-02-04T03:02:49;102457.56;;;8.84;100.00
11440;BME280;5776;51.814;4.510;2024-02-04T03:05:15;102460.88;;;8.86;100.00
11440;BME280;5776;51.814;4.510;2024-02-04T03:07:41;102453.56;;;8.86;100.00
11440;BME280;5776;51.814;4.510;2024-02-04T03:10:08;102450.03;;;8.86;100.00
11440;BME280;5776;51.814;4.510;2024-02-04T03:12:34;102444.38;;;8.87;100.00
11440;BME280;5776;51.814;4.510;2024-02-04T03:15:01;102443.81;;;8.85;100.00
11440;BME280;5776;51.814;4.510;2024-02-04T03:17:27;102449.22;;;8.85;100.00
11440;BME280;5776;51.814;4.510;2024-02-04T03:19:53;102441.91;;;8.86;100.00
11440;BME280;5776;51.814;4.510;2024-02-04T03:22:20;102432.97;;;8.85;100.00
11440;BME280;5776;51.814;4.510;2024-02-04T03:24:47;102438.38;;;8.85;100.00
11440;BME280;5776;51.814;4.510;2024-02-04T03:27:14;102433.19;;;8.84;100.00
11440;BME280;5776;51.814;4.510;2024-02-04T03:29:40;102430.50;;;8.84;100.00
11440;BME280;5776;51.814;4.510;2024-02-04T03:32:10;102434.00;;;8.84;100.00
11440;BME280;5776;51.814;4.510;2024-02-04T03:34:36;102435.91;;;8.84;100.00
11440;BME280;5776;51.814;4.510;2024-02-04T03:37:03;102436.72;;;8.84;100.00
11440;BME280;5776;51.814;4.510;2024-02-04T03:39:29;102430.50;;;8.84;100.00
11440;BME280;5776;51.814;4.510;2024-02-04T03:41:55;102430.50;;;8.84;100.00
11440;BME280;5776;51.814;4.510;2024-02-04T03:44:20;102435.91;;;8.84;100.00
11440;BME280;5776;51.814;4.510;2024-02-04T03:46:50;102428.84;;;8.83;100.00
11440;BME280;5776;51.814;4.510;2024-02-04T03:49:18;102429.66;;;8.83;100.00
11440;BME280;5776;51.814;4.510;2024-02-04T03:51:44;102438.63;;;8.84;100.00
11440;BME280;5776;51.814;4.510;2024-02-04T03:54:11;102439.69;;;8.83;100.00
11440;BME280;5776;51.814;4.510;2024-02-04T03:56:38;102442.41;;;8.83;100.00
11440;BME280;5776;51.814;4.510;2024-02-04T03:59:04;102438.38;;;8.85;100.00
11440;BME280;5776;51.814;4.510;2024-02-04T04:01:31;102436.72;;;8.84;100.00
11440;BME280;5776;51.814;4.510;2024-02-04T04:03:57;102439.22;;;8.86;100.00
11440;BME280;5776;51.814;4.510;2024-02-04T04:06:23;102440.03;;;8.86;100.00
11440;BME280;5776;51.814;4.510;2024-02-04T04:08:49;102447.34;;;8.86;100.00
11440;BME280;5776;51.814;4.510;2024-02-04T04:11:15;102432.97;;;8.85;100.00
11440;BME280;5776;51.814;4.510;2024-02-04T04:13:43;102433.78;;;8.86;100.00
11440;BME280;5776;51.814;4.510;2024-02-04T04:16:09;102424.84;;;8.85;100.00
11440;BME280;5776;51.814;4.510;2024-02-04T04:18:38;102406.69;;;8.86;100.00
11440;BME280;5776;51.814;4.510;2024-02-04T04:21:04;102405.63;;;8.87;100.00
11440;BME280;5776;51.814;4.510;2024-02-04T04:23:29;102393.97;;;8.86;100.00
11440;BME280;5776;51.814;4.510;2024-02-04T04:25:56;102384.19;;;8.85;100.00
11440;BME280;5776;51.814;4.510;2024-02-04T04:28:22;102395.03;;;8.85;100.00
11440;BME280;5776;51.814;4.510;2024-02-04T04:30:48;102395.84;;;8.86;100.00
11440;BME280;5776;51.814;4.510;2024-02-04T04:33:14;102391.25;;;8.86;100.00
11440;BME280;5776;51.814;4.510;2024-02-04T04:35:40;102386.91;;;8.85;100.00
11440;BME280;5776;51.814;4.510;2024-02-04T04:38:07;102392.06;;;8.87;100.00
11440;BME280;5776;51.814;4.510;2024-02-04T04:40:33;102389.63;;;8.85;100.00
11440;BME280;5776;51.814;4.510;2024-02-04T04:42:59;102401.28;;;8.86;100.00
11440;BME280;5776;51.814;4.510;2024-02-04T04:45:24;102398.78;;;8.84;100.00
11440;BME280;5776;51.814;4.510;2024-02-04T04:47:50;102401.28;;;8.86;100.00
11440;BME280;5776;51.814;4.510;2024-02-04T04:50:16;102410.22;;;8.86;100.00
11440;BME280;5776;51.814;4.510;2024-02-04T04:52:43;102395.03;;;8.85;100.00
11440;BME280;5776;51.814;4.510;2024-02-04T04:55:09;102387.72;;;8.86;100.00
11440;BME280;5776;51.814;4.510;2024-02-04T04:57:36;102390.66;;;8.84;100.00
11440;BME280;5776;51.814;4.510;2024-02-04T05:00:02;102389.63;;;8.85;100.00
11440;BME280;5776;51.814;4.510;2024-02-04T05:02:32;102381.72;;;8.84;100.00
11440;BME280;5776;51.814;4.510;2024-02-04T05:04:58;102389.03;;;8.83;100.00
11440;BME280;5776;51.814;4.510;2024-02-04T05:07:24;102395.03;;;8.85;100.00
11440;BME280;5776;51.814;4.510;2024-02-04T05:09:52;102386.31;;;8.83;100.00
11440;BME280;5776;51.814;4.510;2024-02-04T05:12:18;102393.38;;;8.84;100.00
11440;BME280;5776;51.814;4.510;2024-02-04T05:14:45;102390.66;;;8.84;100.00
11440;BME280;5776;51.814;4.510;2024-02-04T05:17:10;102401.50;;;8.84;100.00
11440;BME280;5776;51.814;4.510;2024-02-04T05:19:37;102397.97;;;8.84;100.00
11440;BME280;5776;51.814;4.510;2024-02-04T05:22:03;102390.44;;;8.86;100.00
11440;BME280;5776;51.814;4.510;2024-02-04T05:24:29;102403.97;;;8.86;100.00
11440;BME280;5776;51.814;4.510;2024-02-04T05:26:55;102396.69;;;8.86;100.00
11440;BME280;5776;51.814;4.510;2024-02-04T05:29:21;102401.28;;;8.86;100.00
11440;BME280;5776;51.814;4.510;2024-02-04T05:31:47;102403.72;;;8.87;100.00
11440;BME280;5776;51.814;4.510;2024-02-04T05:34:13;102393.97;;;8.86;100.00
11440;BME280;5776;51.814;4.510;2024-02-04T05:36:39;102379.59;;;8.86;100.00
11440;BME280;5776;51.814;4.510;2024-02-04T05:39:14;102374.19;;;8.86;100.00
11440;BME280;5776;51.814;4.510;2024-02-04T05:41:40;102373.38;;;8.85;100.00
11440;BME280;5776;51.814;4.510;2024-02-04T05:44:07;102383.34;;;8.85;100.00
11440;BME280;5776;51.814;4.510;2024-02-04T05:46:35;102378.78;;;8.85;100.00
11440;BME280;5776;51.814;4.510;2024-02-04T05:49:03;102377.72;;;8.86;100.00
11440;BME280;5776;51.814;4.510;2024-02-04T05:51:31;102387.13;;;8.84;100.00
11440;BME280;5776;51.814;4.510;2024-02-04T05:53:57;102369.25;;;8.83;100.00
11440;BME280;5776;51.814;4.510;2024-02-04T05:56:25;102357.81;;;8.81;100.00
11440;BME280;5776;51.814;4.510;2024-02-04T05:58:51;102357.81;;;8.81;100.00
11440;BME280;5776;51.814;4.510;2024-02-04T06:01:17;102357.00;;;8.80;100.00
11440;BME280;5776;51.814;4.510;2024-02-04T06:03:43;102354.84;;;8.82;100.00
11440;BME280;5776;51.814;4.510;2024-02-04T06:06:14;102352.41;;;8.81;100.00
11440;BME280;5776;51.814;4.510;2024-02-04T06:08:40;102354.28;;;8.80;100.00
11440;BME280;5776;51.814;4.510;2024-02-04T06:11:10;102351.59;;;8.80;100.00
11440;BME280;5776;51.814;4.510;2024-02-04T06:13:36;102359.72;;;8.80;100.00
11440;BME280;5776;51.814;4.510;2024-02-04T06:16:02;102363.47;;;8.79;100.00
11440;BME280;5776;51.814;4.510;2024-02-04T06:18:28;102363.47;;;8.79;100.00
11440;BME280;5776;51.814;4.510;2024-02-04T06:20:56;102360.53;;;8.81;100.00
11440;BME280;5776;51.814;4.510;2024-02-04T06:23:23;102349.09;;;8.79;100.00
11440;BME280;5776;51.814;4.510;2024-02-04T06:25:49;102356.41;;;8.78;100.00
11440;BME280;5776;51.814;4.510;2024-02-04T06:28:15;102361.84;;;8.78;100.00
11440;BME280;5776;51.814;4.510;2024-02-04T06:30:40;102359.13;;;8.78;100.00
11440;BME280;5776;51.814;4.510;2024-02-04T06:33:06;102348.28;;;8.78;100.00
11440;BME280;5776;51.814;4.510;2024-02-04T06:35:32;102350.19;;;8.78;100.00
11440;BME280;5776;51.814;4.510;2024-02-04T06:37:58;102350.19;;;8.78;100.00
11440;BME280;5776;51.814;4.510;2024-02-04T06:40:24;102354.75;;;8.77;100.00
11440;BME280;5776;51.814;4.510;2024-02-04T06:42:50;102351.00;;;8.78;100.00
11440;BME280;5776;51.814;4.510;2024-02-04T06:45:16;102356.41;;;8.78;100.00
11440;BME280;5776;51.814;4.510;2024-02-04T06:47:45;102345.56;;;8.78;100.00
11440;BME280;5776;51.814;4.510;2024-02-04T06:50:11;102347.22;;;8.79;100.00
11440;BME280;5776;51.814;4.510;2024-02-04T06:52:42;102355.34;;;8.79;100.00
11440;BME280;5776;51.814;4.510;2024-02-04T06:55:09;102335.31;;;8.80;100.00
11440;BME280;5776;51.814;4.510;2024-02-04T06:57:43;102344.88;;;8.83;100.00
11440;BME280;5776;51.814;4.510;2024-02-04T07:00:09;102340.84;;;8.85;100.00
11440;BME280;5776;51.814;4.510;2024-02-04T07:02:35;102351.69;;;8.85;100.00
11440;BME280;5776;51.814;4.510;2024-02-04T07:05:01;102342.97;;;8.83;100.00
11440;BME280;5776;51.814;4.510;2024-02-04T07:07:27;102333.53;;;8.86;100.00
11440;BME280;5776;51.814;4.510;2024-02-04T07:09:53;102335.66;;;8.84;100.00
11440;BME280;5776;51.814;4.510;2024-02-04T07:12:19;102336.25;;;8.86;100.00
11440;BME280;5776;51.814;4.510;2024-02-04T07:14:46;102347.91;;;8.86;100.00
11440;BME280;5776;51.814;4.510;2024-02-04T07:17:14;102337.88;;;8.87;100.00
11440;BME280;5776;51.814;4.510;2024-02-04T07:19:39;102342.47;;;8.86;100.00
11440;BME280;5776;51.814;4.510;2024-02-04T07:22:05;102342.25;;;8.88;100.00
11440;BME280;5776;51.814;4.510;2024-02-04T07:24:32;102339.53;;;8.88;100.00
11440;BME280;5776;51.814;4.510;2024-02-04T07:26:58;102332.47;;;8.87;100.00
11440;BME280;5776;51.814;4.510;2024-02-04T07:29:24;102322.44;;;8.87;100.00
11440;BME280;5776;51.814;4.510;2024-02-04T07:31:50;102314.56;;;8.86;100.00
11440;BME280;5776;51.814;4.510;2024-02-04T07:34:17;102323.03;;;8.90;100.00
11440;BME280;5776;51.814;4.510;2024-02-04T07:36:43;102321.13;;;8.90;100.00
11440;BME280;5776;51.814;4.510;2024-02-04T07:39:11;102330.13;;;8.91;100.00
11440;BME280;5776;51.814;4.510;2024-02-04T07:41:37;102315.72;;;8.90;100.00
11440;BME280;5776;51.814;4.510;2024-02-04T07:44:10;102323.03;;;8.90;100.00
11440;BME280;5776;51.814;4.510;2024-02-04T07:46:36;102320.09;;;8.91;100.00
11440;BME280;5776;51.814;4.510;2024-02-04T07:49:02;102327.41;;;8.91;100.00
11440;BME280;5776;51.814;4.510;2024-02-04T07:51:28;102329.03;;;8.92;100.00
11440;BME280;5776;51.814;4.510;2024-02-04T07:53:53;102336.69;;;8.95;100.00
11440;BME280;5776;51.814;4.510;2024-02-04T07:56:19;102328.56;;;8.95;100.00
11440;BME280;5776;51.814;4.510;2024-02-04T07:58:48;102328.56;;;8.95;100.00
11440;BME280;5776;51.814;4.510;2024-02-04T08:01:13;102308.53;;;8.96;100.00
11440;BME280;5776;51.814;4.510;2024-02-04T08:03:39;102318.28;;;8.97;100.00
11440;BME280;5776;51.814;4.510;2024-02-04T08:06:06;102325.34;;;8.98;100.00
11440;BME280;5776;51.814;4.510;2024-02-04T08:08:32;102318.88;;;8.99;100.00
11440;BME280;5776;51.814;4.510;2024-02-04T08:10:58;102319.94;;;8.98;100.00
11440;BME280;5776;51.814;4.510;2024-02-04T08:13:24;102327.25;;;8.97;100.00
11440;BME280;5776;51.814;4.510;2024-02-04T08:15:50;102332.66;;;8.97;100.00
11440;BME280;5776;51.814;4.510;2024-02-04T08:18:15;102329.72;;;8.99;100.00
11440;BME280;5776;51.814;4.510;2024-02-04T08:20:41;102338.91;;;8.98;100.00
11440;BME280;5776;51.814;4.510;2024-02-04T08:23:07;102343.28;;;8.99;100.00
11440;BME280;5776;51.814;4.510;2024-02-04T08:25:33;102339.50;;;9.00;100.00
11440;BME280;5776;51.814;4.510;2024-02-04T08:27:59;102341.16;;;9.01;100.00
11440;BME280;5776;51.814;4.510;2024-02-04T08:30:28;102334.91;;;9.00;100.00
11440;BME280;5776;51.814;4.510;2024-02-04T08:32:54;102345.50;;;9.02;100.00
11440;BME280;5776;51.814;4.510;2024-02-04T08:35:31;102343.59;;;9.02;100.00
11440;BME280;5776;51.814;4.510;2024-02-04T08:37:56;102333.34;;;9.04;100.00
11440;BME280;5776;51.814;4.510;2024-02-04T08:40:22;102336.31;;;9.03;100.00
11440;BME280;5776;51.814;4.510;2024-02-04T08:42:48;102332.53;;;9.04;100.00
11440;BME280;5776;51.814;4.510;2024-02-04T08:45:15;102329.81;;;9.04;100.00
11440;BME280;5776;51.814;4.510;2024-02-04T08:47:42;102332.31;;;9.05;100.00
11440;BME280;5776;51.814;4.510;2024-02-04T08:50:09;102336.66;;;9.06;100.00
11440;BME280;5776;51.814;4.510;2024-02-04T08:52:36;102333.72;;;9.08;100.00
11440;BME280;5776;51.814;4.510;2024-02-04T08:55:02;102333.72;;;9.08;100.00
11440;BME280;5776;51.814;4.510;2024-02-04T08:57:30;102322.88;;;9.08;100.00
11440;BME280;5776;51.814;4.510;2024-02-04T08:59:57;102329.94;;;9.09;100.00
11440;BME280;5776;51.814;4.510;2024-02-04T09:02:22;102323.44;;;9.10;100.00
11440;BME280;5776;51.814;4.510;2024-02-04T09:04:50;102324.28;;;9.11;100.00
11440;BME280;5776;51.814;4.510;2024-02-04T09:07:16;102321.56;;;9.11;100.00
11440;BME280;5776;51.814;4.510;2024-02-04T09:09:41;102316.97;;;9.11;100.00
11440;BME280;5776;51.814;4.510;2024-02-04T09:12:09;102323.44;;;9.10;100.00
11440;BME280;5776;51.814;4.510;2024-02-04T09:14:35;102317.78;;;9.12;100.00
11440;BME280;5776;51.814;4.510;2024-02-04T09:17:05;102319.41;;;9.13;100.00
11440;BME280;5776;51.814;4.510;2024-02-04T09:19:32;102320.25;;;9.13;100.00
11440;BME280;5776;51.814;4.510;2024-02-04T09:21:58;102316.47;;;9.14;100.00
11440;BME280;5776;51.814;4.510;2024-02-04T09:24:24;102313.16;;;9.12;100.00
11440;BME280;5776;51.814;4.510;2024-02-04T09:26:50;102306.44;;;9.15;100.00
11440;BME280;5776;51.814;4.510;2024-02-04T09:29:16;102312.69;;;9.15;100.00
11440;BME280;5776;51.814;4.510;2024-02-04T09:31:43;102306.22;;;9.16;100.00
11440;BME280;5776;51.814;4.510;2024-02-04T09:34:09;102317.06;;;9.16;100.00
11440;BME280;5776;51.814;4.510;2024-02-04T09:36:36;102325.19;;;9.16;100.00
11440;BME280;5776;51.814;4.510;2024-02-04T09:39:02;102324.94;;;9.18;100.00
11440;BME280;5776;51.814;4.510;2024-02-04T09:41:29;102331.19;;;9.18;100.00
11440;BME280;5776;51.814;4.510;2024-02-04T09:43:55;102334.94;;;9.17;100.00
11440;BME280;5776;51.814;4.510;2024-02-04T09:46:22;102339.31;;;9.18;100.00
11440;BME280;5776;51.814;4.510;2024-02-04T09:48:49;102328.47;;;9.18;100.00
11440;BME280;5776;51.814;4.510;2024-02-04T09:51:17;102329.31;;;9.19;100.00
11440;BME280;5776;51.814;4.510;2024-02-04T09:53:44;102333.63;;;9.20;100.00
11440;BME280;5776;51.814;4.510;2024-02-04T09:56:11;102316.34;;;9.21;100.00
11440;BME280;5776;51.814;4.510;2024-02-04T09:58:38;102305.50;;;9.21;100.00
11440;BME280;5776;51.814;4.510;2024-02-04T10:01:04;102315.47;;;9.20;100.00
11440;BME280;5776;51.814;4.510;2024-02-04T10:03:30;102314.44;;;9.21;100.00
11440;BME280;5776;51.814;4.510;2024-02-04T10:05:56;102311.47;;;9.23;100.00
11440;BME280;5776;51.814;4.510;2024-02-04T10:08:22;102305.00;;;9.24;100.00
11440;BME280;5776;51.814;4.510;2024-02-04T10:10:48;102319.38;;;9.24;100.00
11440;BME280;5776;51.814;4.510;2024-02-04T10:13:16;102323.75;;;9.25;100.00
11440;BME280;5776;51.814;4.510;2024-02-04T10:15:42;102325.38;;;9.26;100.00
11440;BME280;5776;51.814;4.510;2024-02-04T10:18:08;102311.59;;;9.28;100.00
11440;BME280;5776;51.814;4.510;2024-02-04T10:20:34;102322.16;;;9.29;100.00
11440;BME280;5776;51.814;4.510;2024-02-04T10:23:00;102329.25;;;9.30;100.00
11440;BME280;5776;51.814;4.510;2024-02-04T10:25:27;102315.69;;;9.30;100.00
11440;BME280;5776;51.814;4.510;2024-02-04T10:27:54;102321.94;;;9.31;100.00
11440;BME280;5776;51.814;4.510;2024-02-04T10:30:20;102305.66;;;9.31;100.00
11440;BME280;5776;51.814;4.510;2024-02-04T10:32:50;102317.34;;;9.32;100.00
11440;BME280;5776;51.814;4.510;2024-02-04T10:35:16;102318.97;;;9.33;100.00
11440;BME280;5776;51.814;4.510;2024-02-04T10:37:47;102310.59;;;9.34;100.00
11440;BME280;5776;51.814;4.510;2024-02-04T10:40:13;102310.00;;;9.32;100.00
11440;BME280;5776;51.814;4.510;2024-02-04T10:42:42;102329.34;;;9.36;100.00
11440;BME280;5776;51.814;4.510;2024-02-04T10:45:08;102324.75;;;9.36;100.00
11440;BME280;5776;51.814;4.510;2024-02-04T10:47:39;102327.19;;;9.38;100.00
11440;BME280;5776;51.814;4.510;2024-02-04T10:50:06;102339.94;;;9.37;100.00
11440;BME280;5776;51.814;4.510;2024-02-04T10:52:37;102323.66;;;9.37;100.00
11440;BME280;5776;51.814;4.510;2024-02-04T10:55:08;102326.38;;;9.37;100.00
11440;BME280;5776;51.814;4.510;2024-02-04T10:57:39;102310.91;;;9.38;100.00
11440;BME280;5776;51.814;4.510;2024-02-04T11:00:05;102312.59;;;9.39;100.00
11440;BME280;5776;51.814;4.510;2024-02-04T11:02:36;102315.31;;;9.39;100.00
11440;BME280;5776;51.814;4.510;2024-02-04T11:05:04;102304.19;;;9.40;100.00
11440;BME280;5776;51.814;4.510;2024-02-04T11:07:32;102303.38;;;9.40;100.00
11440;BME280;5776;51.814;4.510;2024-02-04T11:09:58;102318.59;;;9.41;100.00
11440;BME280;5776;51.814;4.510;2024-02-04T11:12:25;102311.50;;;9.40;100.00
11440;BME280;5776;51.814;4.510;2024-02-04T11:14:54;102308.78;;;9.40;100.00
11440;BME280;5776;51.814;4.510;2024-02-04T11:23:27;102307.47;;;9.42;100.00
11440;BME280;5776;51.814;4.510;2024-02-04T11:25:58;102307.47;;;9.42;100.00
11440;BME280;5776;51.814;4.510;2024-02-04T11:28:26;102294.50;;;9.44;100.00
11440;BME280;5776;51.814;4.510;2024-02-04T11:30:52;102294.50;;;9.44;100.00
11440;BME280;5776;51.814;4.510;2024-02-04T11:33:19;102300.16;;;9.43;100.00
11440;BME280;5776;51.814;4.510;2024-02-04T11:35:46;102294.75;;;9.43;100.00
11440;BME280;5776;51.814;4.510;2024-02-04T11:38:12;102304.53;;;9.44;100.00
11440;BME280;5776;51.814;4.510;2024-02-04T11:40:42;102298.63;;;9.47;100.00
11440;BME280;5776;51.814;4.510;2024-02-04T11:43:13;102288.28;;;9.44;100.00
11440;BME280;5776;51.814;4.510;2024-02-04T11:45:40;102288.28;;;9.44;100.00
11440;BME280;5776;51.814;4.510;2024-02-04T11:48:12;102284.75;;;9.43;100.00
11440;BME280;5776;51.814;4.510;2024-02-04T11:50:39;102290.72;;;9.45;100.00
11440;BME280;5776;51.814;4.510;2024-02-04T11:53:10;102268.22;;;9.45;100.00
11440;BME280;5776;51.814;4.510;2024-02-04T11:55:38;102266.06;;;9.47;100.00
11440;BME280;5776;51.814;4.510;2024-02-04T11:58:08;102273.63;;;9.45;100.00
11440;BME280;5776;51.814;4.510;2024-02-04T12:00:35;102271.50;;;9.47;100.00
11440;BME280;5776;51.814;4.510;2024-02-04T12:03:02;102270.41;;;9.48;100.00
11440;BME280;5776;51.814;4.510;2024-02-04T12:05:31;102269.88;;;9.46;100.00
11440;BME280;5776;51.814;4.510;2024-02-04T12:08:01;102279.41;;;9.48;100.00
11440;BME280;5776;51.814;4.510;2024-02-04T12:10:29;102283.97;;;9.48;100.00
11440;BME280;5776;51.814;4.510;2024-02-04T12:12:56;102275.84;;;9.48;100.00
11440;BME280;5776;51.814;4.510;2024-02-04T12:15:23;102266.06;;;9.47;100.00
11440;BME280;5776;51.814;4.510;2024-02-04T12:17:49;102271.25;;;9.48;100.00
11440;BME280;5776;51.814;4.510;2024-02-04T12:20:15;102273.13;;;9.48;100.00
11440;BME280;5776;51.814;4.510;2024-02-04T12:22:40;102274.78;;;9.49;100.00
11440;BME280;5776;51.814;4.510;2024-02-04T12:25:07;102262.63;;;9.51;100.00
11440;BME280;5776;51.814;4.510;2024-02-04T12:27:33;102262.41;;;9.53;100.00
11440;BME280;5776;51.814;4.510;2024-02-04T12:29:59;102262.94;;;9.55;100.00
11440;BME280;5776;51.814;4.510;2024-02-04T12:32:25;102271.66;;;9.57;100.00
11440;BME280;5776;51.814;4.510;2024-02-04T12:34:52;102262.47;;;9.58;100.00
11440;BME280;5776;51.814;4.510;2024-02-04T12:37:22;102252.19;;;9.60;100.00
11440;BME280;5776;51.814;4.510;2024-02-04T12:39:50;102263.63;;;9.62;100.00
11440;BME280;5776;51.814;4.510;2024-02-04T12:42:16;102266.91;;;9.64;100.00
11440;BME280;5776;51.814;4.510;2024-02-04T12:44:50;102256.88;;;9.65;100.00
11440;BME280;5776;51.814;4.510;2024-02-04T12:47:19;102251.28;;;9.71;100.00
11440;BME280;5776;51.814;4.510;2024-02-04T12:49:46;102262.44;;;9.75;100.00
11440;BME280;5776;51.814;4.510;2024-02-04T12:52:12;102256.56;;;9.78;100.00
11440;BME280;5776;51.814;4.510;2024-02-04T12:54:45;102259.50;;;9.77;100.00
11440;BME280;5776;51.814;4.510;2024-02-04T12:57:22;102259.00;;;9.80;100.00
11440;BME280;5776;51.814;4.510;2024-02-04T12:59:49;102252.25;;;9.82;100.00
11440;BME280;5776;51.814;4.510;2024-02-04T13:02:15;102253.06;;;9.83;100.00
11440;BME280;5776;51.814;4.510;2024-02-04T13:04:41;102249.88;;;9.86;100.00
11440;BME280;5776;51.814;4.510;2024-02-04T13:07:10;102246.09;;;9.87;100.00
11440;BME280;5776;51.814;4.510;2024-02-04T13:09:37;102243.94;;;9.89;100.00